This is the latest recevied weather packets stored in our database for station/object IT9RID. If no packets are shown the sender has not sent any weather packets the latest 10 day(s).
| Time | Temp. | Humidity | Pressure | Rain* | Wind** | Luminosity | Snow |
|---|---|---|---|---|---|---|---|
| 1777866231 | 11.11° C | 62% | 1019.4 hPa | 0 mm | - | - | - |
| 1777865631 | 11.67° C | 61% | 1019.4 hPa | 0 mm | - | - | - |
| 1777865031 | 11.11° C | 62% | 1019.5 hPa | 0 mm | - | - | - |
| 1777864431 | 11.11° C | 63% | 1019.5 hPa | 0 mm | - | - | - |
| 1777863831 | 10.56° C | 66% | 1019.5 hPa | 0 mm | - | - | - |
| 1777863231 | 10.56° C | 66% | 1019.6 hPa | 0 mm | - | - | - |
| 1777862630 | 10.56° C | 66% | 1019.6 hPa | 0 mm | - | - | - |
| 1777862030 | 11.11° C | 63% | 1019.6 hPa | 0 mm | - | - | - |
| 1777861430 | 11.11° C | 63% | 1019.6 hPa | 0 mm | - | - | - |
| 1777860830 | 11.67° C | 62% | 1019.7 hPa | 0 mm | - | - | - |
| 1777860230 | 11.11° C | 63% | 1019.5 hPa | 0 mm | - | - | - |
| 1777859630 | 11.67° C | 63% | 1019.5 hPa | 0 mm | - | - | - |
| 1777859029 | 11.67° C | 62% | 1019.4 hPa | 0 mm | - | - | - |
| 1777858430 | 11.67° C | 63% | 1019.3 hPa | 0 mm | - | - | - |
| 1777857830 | 11.67° C | 62% | 1019.3 hPa | 0 mm | - | - | - |
| 1777857229 | 11.11° C | 63% | 1019.3 hPa | 0 mm | - | - | - |
| 1777856629 | 11.67° C | 62% | 1019.4 hPa | 0 mm | - | - | - |
| 1777856029 | 11.67° C | 63% | 1019.6 hPa | 0 mm | - | - | - |
| 1777855429 | 11.11° C | 65% | 1019.6 hPa | 0 mm | - | - | - |
| 1777854829 | 11.67° C | 65% | 1019.7 hPa | 0 mm | - | - | - |
| 1777854229 | 11.67° C | 66% | 1019.7 hPa | 0 mm | - | - | - |
| 1777853637 | 11.67° C | 67% | 1019.7 hPa | 0 mm | - | - | - |
| 1777853028 | 11.67° C | 69% | 1019.8 hPa | 0 mm | - | - | - |
| 1777852428 | 11.67° C | 69% | 1019.8 hPa | 0 mm | - | - | - |
| 1777851828 | 12.22° C | 69% | 1019.9 hPa | 0 mm | - | - | - |
* Rain latest hour (hover to see other rain measurements)
** Current wind speed in m/s (hover to see current wind gust speed)